Time;durP1;ratioP1;P1;durP2;ratioP2;P2;SDS_P1;SDS_P2;PMS_P1;PMS_P2;Temp;Humidity;BMP_temperature;BMP_pressure;BME280_temperature;BME280_humidity;BME280_pressure;Samples;Min_cycle;Max_cycle;Signal;HPM_P1;HPM_P2
2023/08/27 00:01:49;;;;;;;0.10;0.10;;;;;;;26.24;54.39;100756.00;4951855;29;20502;-89
2023/08/27 00:04:15;;;;;;;0.10;0.10;;;;;;;26.28;54.25;100752.03;4951883;29;20035;-89
2023/08/27 00:06:40;;;;;;;0.10;0.10;;;;;;;26.08;54.77;100742.84;4935813;29;20108;-89
2023/08/27 00:09:06;;;;;;;0.10;0.10;;;;;;;26.00;55.09;100760.44;4935835;29;20106;-91
2023/08/27 00:11:32;;;;;;;0.20;0.20;;;;;;;25.95;54.83;100757.47;4935577;29;20038;-90
2023/08/27 00:13:57;;;;;;;0.20;0.20;;;;;;;25.95;55.80;100760.09;4951726;29;20028;-89
2023/08/27 00:16:22;;;;;;;0.10;0.10;;;;;;;25.96;55.55;100759.13;4951348;29;20039;-90
2023/08/27 00:18:48;;;;;;;0.10;0.10;;;;;;;25.90;55.24;100749.22;4935828;29;20485;-88
2023/08/27 00:21:13;;;;;;;0.10;0.10;;;;;;;26.09;54.75;100747.97;4935714;29;20054;-90
2023/08/27 00:23:40;;;;;;;0.10;0.10;;;;;;;25.95;55.14;100746.84;4951629;29;20043;-90
2023/08/27 00:26:05;;;;;;;0.10;0.10;;;;;;;25.81;55.36;100723.75;4951822;29;20102;-89
2023/08/27 00:28:31;;;;;;;0.17;0.17;;;;;;;25.84;55.33;100739.28;4951443;29;20439;-88
2023/08/27 00:31:03;;;;;;;0.20;0.20;;;;;;;25.90;55.26;100749.22;4934936;29;20031;-89
2023/08/27 00:33:29;;;;;;;0.10;0.10;;;;;;;25.73;55.91;100752.91;4951361;29;20066;-89
2023/08/27 00:35:54;;;;;;;0.10;0.10;;;;;;;25.62;56.17;100746.13;4951602;29;20066;-89
2023/08/27 00:38:20;;;;;;;0.10;0.10;;;;;;;25.58;56.60;100754.59;4935465;29;20059;-89
2023/08/27 00:40:45;;;;;;;0.10;0.10;;;;;;;25.51;56.62;100746.47;4951494;29;20043;-89
2023/08/27 00:43:11;;;;;;;0.10;0.10;;;;;;;25.59;57.11;100761.53;4935556;29;20023;-89
2023/08/27 00:45:36;;;;;;;0.20;0.20;;;;;;;25.48;57.20;100749.47;4951126;29;20027;-89
2023/08/27 00:48:02;;;;;;;0.17;0.17;;;;;;;25.60;56.77;100758.72;4951460;29;20066;-90
2023/08/27 00:50:27;;;;;;;0.10;0.10;;;;;;;25.44;56.97;100743.66;4951510;29;20031;-89
2023/08/27 00:52:53;;;;;;;0.10;0.10;;;;;;;25.60;57.29;100764.00;4951420;29;20155;-89
2023/08/27 00:55:18;;;;;;;0.10;0.10;;;;;;;25.59;57.18;100766.84;4951352;28;20065;-90
2023/08/27 00:57:44;;;;;;;0.10;0.10;;;;;;;25.59;57.60;100774.78;4951080;29;20035;-89
2023/08/27 01:00:10;;;;;;;0.10;0.10;;;;;;;25.48;57.68;100764.53;4951365;29;20042;-88
2023/08/27 01:02:38;;;;;;;0.10;0.10;;;;;;;25.57;57.67;100763.53;4951595;29;20031;-90
2023/08/27 01:05:04;;;;;;;0.10;0.10;;;;;;;25.62;57.52;100777.91;4951049;28;20027;-89
2023/08/27 01:07:59;;;;;;;0.20;0.20;;;;;;;25.53;57.42;100765.69;4951570;29;20070;-88
2023/08/27 01:11:05;;;;;;;0.10;0.10;;;;;;;25.46;57.90;100770.81;4949021;28;20178;-89
2023/08/27 01:13:35;;;;;;;0.10;0.10;;;;;;;25.33;57.57;100749.31;4967107;28;20390;-89
2023/08/27 01:16:01;;;;;;;0.10;0.10;;;;;;;25.40;57.65;100768.84;4951020;29;20489;-89
2023/08/27 01:18:27;;;;;;;0.10;0.10;;;;;;;25.46;57.80;100770.81;4950899;28;20146;-88
2023/08/27 01:20:52;;;;;;;0.10;0.10;;;;;;;25.46;57.83;100764.69;4935153;29;20027;-91
2023/08/27 01:23:18;;;;;;;0.10;0.10;;;;;;;25.38;57.75;100759.44;4951196;29;20109;-89
2023/08/27 01:25:45;;;;;;;0.10;0.10;;;;;;;25.44;57.79;100766.69;4951173;29;20031;-89
2023/08/27 01:28:32;;;;;;;0.10;0.10;;;;;;;25.33;57.79;100751.97;4950830;29;20054;-90
2023/08/27 01:31:07;;;;;;;0.10;0.10;;;;;;;25.29;57.85;100761.25;4951016;28;20035;-89
2023/08/27 01:33:32;;;;;;;0.10;0.10;;;;;;;25.19;58.36;100757.13;4950942;29;20032;-89
2023/08/27 01:35:57;;;;;;;0.10;0.10;;;;;;;25.28;58.12;100764.91;4950930;29;20035;-90
2023/08/27 01:38:23;;;;;;;0.10;0.10;;;;;;;25.05;58.57;100727.66;4934927;29;20581;-91
2023/08/27 01:40:48;;;;;;;0.10;0.10;;;;;;;25.35;58.24;100765.88;4950871;28;20035;-90
2023/08/27 01:43:14;;;;;;;0.10;0.10;;;;;;;25.36;58.21;100770.16;4937180;29;20042;-88
2023/08/27 01:45:39;;;;;;;0.10;0.10;;;;;;;25.16;58.38;100745.84;4938400;29;20042;-88
2023/08/27 01:48:05;;;;;;;0.10;0.10;;;;;;;25.27;58.44;100757.09;4954346;29;20409;-88
2023/08/27 01:50:32;;;;;;;0.10;0.10;;;;;;;25.33;58.30;100757.28;4954326;29;20031;-89
2023/08/27 01:52:57;;;;;;;0.20;0.20;;;;;;;25.17;58.85;100773.16;4954492;29;20027;-89
2023/08/27 01:55:23;;;;;;;0.10;0.10;;;;;;;25.23;59.00;100767.22;4953962;29;20134;-90
2023/08/27 01:57:48;;;;;;;0.10;0.10;;;;;;;25.13;59.51;100753.31;4953807;29;20067;-89
2023/08/27 02:00:16;;;;;;;0.20;0.20;;;;;;;25.02;59.65;100754.47;4938034;29;20027;-89
2023/08/27 02:02:42;;;;;;;0.10;0.10;;;;;;;25.02;60.00;100774.81;4954318;28;20508;-88
2023/08/27 02:05:08;;;;;;;0.10;0.10;;;;;;;25.00;59.90;100764.38;4954051;29;20031;-89
2023/08/27 02:07:37;;;;;;;0.10;0.10;;;;;;;24.94;60.42;100746.50;4954066;29;20128;-88
2023/08/27 02:10:07;;;;;;;0.20;0.20;;;;;;;24.91;59.92;100748.66;4953507;29;20042;-89
2023/08/27 02:12:33;;;;;;;0.10;0.10;;;;;;;25.05;59.98;100771.84;4953351;29;20027;-88
2023/08/27 02:14:58;;;;;;;0.10;0.10;;;;;;;24.97;60.13;100745.34;4953709;29;20573;-89
2023/08/27 02:17:24;;;;;;;0.20;0.20;;;;;;;25.05;59.63;100742.72;4937625;29;20477;-90
2023/08/27 02:19:49;;;;;;;0.10;0.10;;;;;;;25.08;59.63;100737.13;4937738;29;20027;-89
2023/08/27 02:22:15;;;;;;;0.10;0.10;;;;;;;25.07;59.79;100743.38;4937606;29;20057;-89
2023/08/27 02:24:40;;;;;;;0.10;0.10;;;;;;;25.14;59.50;100758.44;4937652;29;20059;-90
2023/08/27 02:27:06;;;;;;;0.10;0.10;;;;;;;24.99;59.50;100753.97;4953459;29;20035;-90
2023/08/27 02:29:32;;;;;;;0.10;0.10;;;;;;;24.91;60.20;100768.00;4953595;29;20035;-90
2023/08/27 02:31:57;;;;;;;0.20;0.20;;;;;;;24.94;60.37;100766.84;4953543;29;20038;-89
2023/08/27 02:34:23;;;;;;;0.10;0.10;;;;;;;24.94;60.22;100758.91;4953437;28;20035;-89
2023/08/27 02:36:49;;;;;;;0.10;0.10;;;;;;;24.84;60.78;100762.53;4937468;29;20043;-88
2023/08/27 02:39:14;;;;;;;0.10;0.10;;;;;;;24.89;60.38;100762.88;4937232;29;20063;-88
2023/08/27 02:41:40;;;;;;;0.10;0.10;;;;;;;24.84;60.36;100748.50;4937070;29;20410;-90
2023/08/27 02:44:05;;;;;;;0.10;0.10;;;;;;;24.99;59.99;100775.97;4953032;29;20023;-90
2023/08/27 02:46:31;;;;;;;0.10;0.10;;;;;;;25.01;59.94;100771.31;4953172;28;20482;-88
2023/08/27 02:48:56;;;;;;;0.10;0.10;;;;;;;25.08;59.49;100768.88;4937205;29;20031;-89
2023/08/27 02:51:22;;;;;;;0.10;0.10;;;;;;;24.99;60.10;100772.50;4952914;29;20035;-89
2023/08/27 02:53:51;;;;;;;0.10;0.10;;;;;;;24.78;60.77;100751.81;4952406;28;20517;-89
2023/08/27 02:56:17;;;;;;;0.10;0.10;;;;;;;24.81;60.87;100767.34;4952924;29;20027;-88
2023/08/27 02:58:42;;;;;;;0.10;0.10;;;;;;;24.86;61.11;100780.91;4953045;29;20023;-89
2023/08/27 03:01:08;;;;;;;0.10;0.10;;;;;;;24.99;61.11;100791.00;4937007;29;20031;-89
2023/08/27 03:03:33;;;;;;;0.10;0.10;;;;;;;24.91;61.75;100789.19;4952677;29;20390;-89
2023/08/27 03:05:59;;;;;;;0.10;0.10;;;;;;;24.94;61.79;100799.44;4936883;29;20039;-90
2023/08/27 03:08:24;;;;;;;0.10;0.10;;;;;;;24.91;62.41;100791.00;4952794;29;20027;-90
2023/08/27 03:10:50;;;;;;;0.20;0.20;;;;;;;24.92;62.90;100795.31;4936596;29;20035;-89
2023/08/27 03:13:15;;;;;;;0.10;0.10;;;;;;;24.88;63.34;100790.34;4953046;29;20406;-88
2023/08/27 03:15:41;;;;;;;0.10;0.10;;;;;;;24.88;63.82;100795.63;4952686;29;20031;-88
2023/08/27 03:18:06;;;;;;;0.10;0.10;;;;;;;24.74;63.94;100756.56;4936325;29;20062;-88
2023/08/27 03:20:32;;;;;;;0.10;0.10;;;;;;;24.73;64.73;100776.09;4952477;29;20805;-89
2023/08/27 03:22:57;;;;;;;0.10;0.10;;;;;;;24.74;64.79;100775.09;4936519;29;20038;-89
2023/08/27 03:25:23;;;;;;;0.10;0.10;;;;;;;24.73;65.21;100786.69;4952558;29;20485;-89
2023/08/27 03:27:48;;;;;;;0.10;0.10;;;;;;;24.70;65.76;100786.19;4952385;29;20098;-89
2023/08/27 03:30:13;;;;;;;0.10;0.10;;;;;;;24.53;66.33;100790.59;4936396;29;20090;-89
2023/08/27 03:32:39;;;;;;;0.10;0.10;;;;;;;24.64;66.04;100803.53;4952419;29;20029;-88
2023/08/27 03:35:05;;;;;;;0.10;0.10;;;;;;;24.58;66.58;100797.06;4936340;29;20046;-89
2023/08/27 03:37:30;;;;;;;0.10;0.10;;;;;;;24.68;66.29;100817.25;4952052;29;20535;-90
2023/08/27 03:39:56;;;;;;;0.10;0.10;;;;;;;24.58;66.46;100814.72;4951965;29;20030;-91
2023/08/27 03:42:21;;;;;;;0.10;0.10;;;;;;;24.51;67.22;100821.69;4952179;29;20027;-88
2023/08/27 03:44:47;;;;;;;0.20;0.20;;;;;;;24.50;66.86;100818.22;4936135;29;20035;-88
2023/08/27 03:47:12;;;;;;;0.10;0.10;;;;;;;24.42;67.04;100815.53;4952164;29;20064;-89
2023/08/27 03:49:38;;;;;;;0.10;0.10;;;;;;;24.52;66.62;100825.97;4936032;29;20039;-89
2023/08/27 03:52:04;;;;;;;0.10;0.10;;;;;;;24.55;65.47;100831.75;4968230;28;20509;-88
2023/08/27 03:54:30;;;;;;;0.20;0.20;;;;;;;24.51;64.60;100819.03;4951920;29;20027;-89
2023/08/27 03:56:56;;;;;;;0.20;0.20;;;;;;;24.55;64.48;100825.66;4951948;28;20046;-90
2023/08/27 03:59:21;;;;;;;0.10;0.10;;;;;;;24.66;63.92;100838.56;4952230;29;20034;-89
2023/08/27 04:01:47;;;;;;;0.17;0.17;;;;;;;24.49;62.72;100828.94;4952110;28;20031;-89
2023/08/27 04:04:12;;;;;;;0.10;0.10;;;;;;;24.52;62.22;100824.16;4935568;29;20039;-90
2023/08/27 04:06:38;;;;;;;0.10;0.10;;;;;;;24.48;62.24;100845.78;4951382;29;20035;-89
2023/08/27 04:09:04;;;;;;;0.10;0.10;;;;;;;24.45;62.40;100846.94;4951268;29;20042;-90
2023/08/27 04:11:30;;;;;;;0.10;0.10;;;;;;;24.15;62.23;100821.81;4935585;29;20129;-88
2023/08/27 04:13:55;;;;;;;0.10;0.10;;;;;;;24.03;62.91;100807.25;4951769;29;20035;-90
2023/08/27 04:16:21;;;;;;;0.10;0.10;;;;;;;24.40;62.28;100843.94;4951734;29;20027;-90
2023/08/27 04:18:46;;;;;;;0.10;0.10;;;;;;;24.22;62.91;100851.94;4935617;29;20031;-89
2023/08/27 04:21:12;;;;;;;0.10;0.10;;;;;;;24.21;62.79;100847.63;4935602;29;20058;-91
2023/08/27 04:23:37;;;;;;;0.10;0.10;;;;;;;24.19;62.81;100854.91;4935505;29;20051;-89
2023/08/27 04:26:03;;;;;;;0.10;0.10;;;;;;;24.09;62.89;100863.91;4935827;29;20043;-89
2023/08/27 04:28:31;;;;;;;0.20;0.20;;;;;;;24.10;62.69;100857.66;4935777;29;20052;-89
2023/08/27 04:30:57;;;;;;;0.10;0.10;;;;;;;24.01;63.17;100844.41;4935948;29;20117;-89
2023/08/27 04:33:22;;;;;;;0.10;0.10;;;;;;;23.97;63.83;100850.13;4967565;28;20405;-89
2023/08/27 04:35:49;;;;;;;0.20;0.20;;;;;;;23.98;63.28;100851.78;4935321;29;20516;-89
2023/08/27 04:38:15;;;;;;;0.10;0.10;;;;;;;24.01;63.47;100854.13;4951348;29;20028;-88
2023/08/27 04:40:41;;;;;;;0.10;0.10;;;;;;;24.03;63.23;100854.81;4951471;29;20037;-89
2023/08/27 04:43:06;;;;;;;0.10;0.10;;;;;;;24.10;63.19;100865.59;4935405;29;20544;-91
2023/08/27 04:45:32;;;;;;;0.10;0.10;;;;;;;24.09;63.02;100856.84;4951356;29;20032;-90
2023/08/27 04:47:57;;;;;;;0.10;0.10;;;;;;;23.98;63.65;100859.72;4935473;29;20483;-88
2023/08/27 04:50:23;;;;;;;0.10;0.10;;;;;;;24.12;62.96;100859.16;4935338;29;20035;-88
2023/08/27 04:52:48;;;;;;;0.10;0.10;;;;;;;24.20;63.00;100869.78;4935212;29;20042;-89
2023/08/27 04:55:13;;;;;;;0.10;0.10;;;;;;;24.33;62.55;100866.72;4951713;29;20091;-89
2023/08/27 04:57:39;;;;;;;0.10;0.10;;;;;;;24.21;62.46;100866.16;4951175;29;20035;-89
2023/08/27 05:00:12;;;;;;;0.10;0.10;;;;;;;24.24;62.64;100871.09;4951398;29;20034;-89
2023/08/27 05:02:37;;;;;;;0.20;0.20;;;;;;;24.20;63.18;100861.84;4951398;29;20023;-88
2023/08/27 05:05:03;;;;;;;0.10;0.10;;;;;;;24.31;63.06;100871.34;4935098;29;20054;-89
2023/08/27 05:07:28;;;;;;;0.20;0.20;;;;;;;24.34;62.77;100870.19;4950770;29;20027;-89
2023/08/27 05:09:54;;;;;;;0.10;0.10;;;;;;;24.31;63.22;100874.81;4951315;29;20078;-88
2023/08/27 05:12:20;;;;;;;0.10;0.10;;;;;;;24.35;63.26;100879.78;4951322;29;20032;-89
2023/08/27 05:14:45;;;;;;;0.17;0.17;;;;;;;24.46;62.79;100880.31;4935200;29;20504;-90
2023/08/27 05:17:11;;;;;;;0.10;0.10;;;;;;;24.48;62.66;100873.09;4937346;29;20051;-90
2023/08/27 05:19:36;;;;;;;0.10;0.10;;;;;;;24.63;62.78;100890.97;4954783;29;20486;-90
2023/08/27 05:22:02;;;;;;;0.10;0.10;;;;;;;24.67;62.76;100892.31;4938613;29;20118;-89
2023/08/27 05:24:27;;;;;;;0.10;0.10;;;;;;;24.67;62.71;100892.31;4954735;28;20031;-89
2023/08/27 05:26:53;;;;;;;0.20;0.20;;;;;;;24.66;62.39;100875.59;4938817;29;20027;-89
2023/08/27 05:29:18;;;;;;;0.20;0.20;;;;;;;24.78;62.08;100886.75;4954519;29;20038;-87
2023/08/27 05:31:44;;;;;;;0.10;0.10;;;;;;;24.82;62.75;100891.53;4954564;29;20023;-89
2023/08/27 05:34:09;;;;;;;0.10;0.10;;;;;;;24.92;62.12;100895.88;4954857;29;20035;-88
2023/08/27 05:36:34;;;;;;;0.10;0.10;;;;;;;24.85;62.18;100885.91;4954262;29;20090;-89
2023/08/27 05:39:00;;;;;;;0.20;0.20;;;;;;;25.02;62.34;100891.28;4938378;29;20027;-90
2023/08/27 05:41:26;;;;;;;0.10;0.10;;;;;;;25.13;61.68;100905.03;4938398;29;20485;-89
2023/08/27 05:43:52;;;;;;;0.10;0.10;;;;;;;25.22;61.73;100897.13;4954498;29;20046;-89
2023/08/27 05:46:18;;;;;;;0.10;0.10;;;;;;;25.33;61.83;100894.97;4938351;29;20043;-89
2023/08/27 05:48:43;;;;;;;0.20;0.20;;;;;;;25.34;61.38;100886.03;4954406;28;20059;-88
2023/08/27 05:51:09;;;;;;;0.17;0.17;;;;;;;25.40;61.43;100890.69;4954004;28;20082;-89
2023/08/27 05:53:34;;;;;;;0.20;0.20;;;;;;;25.49;60.99;100901.28;4938203;29;20042;-89
2023/08/27 05:56:00;;;;;;;0.10;0.10;;;;;;;25.50;60.65;100889.69;4938080;29;20034;-89
2023/08/27 05:58:25;;;;;;;0.10;0.10;;;;;;;25.67;60.47;100901.94;4938000;29;20031;-90
2023/08/27 06:00:52;;;;;;;0.10;0.10;;;;;;;25.75;60.04;100894.00;4938122;29;20039;-89
2023/08/27 06:03:18;;;;;;;0.10;0.10;;;;;;;25.89;59.23;100903.94;4954081;28;20490;-88
2023/08/27 06:05:43;;;;;;;0.17;0.17;;;;;;;25.94;58.71;100898.13;4954144;29;20070;-89
2023/08/27 06:08:09;;;;;;;0.10;0.10;;;;;;;26.09;58.14;100895.63;4954084;29;20493;-89
2023/08/27 06:10:34;;;;;;;0.10;0.10;;;;;;;26.19;57.06;100906.84;4937682;29;20039;-91
2023/08/27 06:13:00;;;;;;;0.10;0.10;;;;;;;26.06;57.24;100890.66;4954023;29;20028;-89
2023/08/27 06:15:28;;;;;;;0.10;0.10;;;;;;;26.28;57.27;100901.38;4937840;29;20382;-89
2023/08/27 06:17:54;;;;;;;0.17;0.17;;;;;;;26.39;55.80;100905.50;4953486;29;20505;-89
2023/08/27 06:20:20;;;;;;;0.10;0.10;;;;;;;26.35;55.90;100885.59;4937568;29;20039;-89
2023/08/27 06:22:45;;;;;;;0.10;0.10;;;;;;;26.43;54.42;100903.31;4953569;29;20110;-89
2023/08/27 06:25:11;;;;;;;0.20;0.20;;;;;;;26.39;54.82;100889.59;4953593;29;20042;-89
2023/08/27 06:27:37;;;;;;;0.20;0.20;;;;;;;26.62;54.52;100912.69;4952803;28;20023;-89
2023/08/27 06:30:04;;;;;;;0.20;0.20;;;;;;;26.61;54.46;100905.75;4953464;29;20629;-89
2023/08/27 06:32:29;;;;;;;0.10;0.10;;;;;;;26.69;54.32;100903.88;4953144;29;20481;-89
2023/08/27 06:34:55;;;;;;;0.10;0.10;;;;;;;26.76;53.77;100904.03;4937426;29;20031;-87
2023/08/27 06:37:20;;;;;;;0.20;0.20;;;;;;;26.82;54.02;100913.94;4953353;29;20409;-88
2023/08/27 06:39:46;;;;;;;0.10;0.10;;;;;;;26.96;53.75;100902.59;4937315;29;20027;-89
2023/08/27 06:42:12;;;;;;;0.20;0.20;;;;;;;27.09;52.78;100923.28;4953387;29;20031;-89
2023/08/27 06:44:38;;;;;;;0.10;0.10;;;;;;;27.10;52.18;100909.81;4953560;28;20023;-89
2023/08/27 06:47:04;;;;;;;0.20;0.20;;;;;;;27.18;51.47;100900.97;4952813;29;20085;-88
2023/08/27 06:49:29;;;;;;;0.20;0.20;;;;;;;27.08;51.47;100895.91;4952927;28;20454;-88
2023/08/27 06:51:54;;;;;;;0.20;0.20;;;;;;;27.27;51.56;100913.19;4937057;29;20042;-89
2023/08/27 06:54:20;;;;;;;0.20;0.20;;;;;;;27.25;52.06;100914.41;4937030;29;20031;-89
2023/08/27 06:56:45;;;;;;;0.20;0.20;;;;;;;27.32;51.85;100920.63;4937216;29;20035;-90
2023/08/27 06:59:11;;;;;;;0.13;0.13;;;;;;;27.27;52.01;100917.69;4936872;29;20035;-88
2023/08/27 07:01:39;;;;;;;0.20;0.20;;;;;;;27.41;52.23;100931.03;4936905;29;20035;-89
2023/08/27 07:04:04;;;;;;;0.20;0.20;;;;;;;27.56;51.09;100924.94;4953161;28;20045;-88
2023/08/27 07:06:30;;;;;;;0.20;0.20;;;;;;;27.51;50.65;100914.84;4953109;29;20391;-89
2023/08/27 07:08:56;;;;;;;0.20;0.20;;;;;;;27.76;50.97;100933.28;4952772;29;20035;-89
2023/08/27 07:11:21;;;;;;;0.10;0.10;;;;;;;27.72;50.86;100907.03;4952365;29;20083;-88
2023/08/27 07:13:48;;;;;;;0.15;0.15;;;;;;;28.01;50.05;100930.19;4936746;29;20035;-90
2023/08/27 07:16:14;;;;;;;0.17;0.17;;;;;;;28.05;49.73;100933.34;4952782;29;20042;-90
2023/08/27 07:18:40;;;;;;;0.20;0.20;;;;;;;28.24;49.98;100916.03;4952066;29;20055;-88
2023/08/27 07:21:05;;;;;;;0.10;0.10;;;;;;;28.34;48.53;100911.28;4952737;29;20421;-90
2023/08/27 07:23:31;;;;;;;0.20;0.20;;;;;;;28.33;48.70;100909.63;4952429;29;20039;-89
2023/08/27 07:25:56;;;;;;;0.20;0.20;;;;;;;28.46;48.58;100904.47;4936537;29;20031;-89
2023/08/27 07:28:22;;;;;;;0.10;0.10;;;;;;;28.57;48.04;100919.16;4952492;28;20031;-90
2023/08/27 07:30:49;;;;;;;0.10;0.10;;;;;;;28.55;47.82;100910.53;4952241;29;20114;-90
2023/08/27 07:33:15;;;;;;;0.10;0.10;;;;;;;28.67;48.39;100914.34;4952509;28;20031;-90
2023/08/27 07:35:41;;;;;;;0.20;0.20;;;;;;;28.88;47.32;100918.09;4952400;29;20500;-91
2023/08/27 07:38:06;;;;;;;0.20;0.20;;;;;;;28.79;47.37;100899.53;4952185;29;20031;-89
2023/08/27 07:40:38;;;;;;;0.20;0.20;;;;;;;29.04;47.38;100913.38;4952233;28;20504;-90
2023/08/27 07:43:04;;;;;;;0.20;0.20;;;;;;;29.05;46.83;100906.22;4952593;28;20031;-89
2023/08/27 07:45:29;;;;;;;0.20;0.20;;;;;;;29.11;47.17;100903.63;4951848;29;20031;-90
2023/08/27 07:47:55;;;;;;;0.20;0.20;;;;;;;29.46;47.08;100914.41;4968361;28;20082;-89
2023/08/27 07:50:20;;;;;;;0.20;0.20;;;;;;;29.49;45.30;100905.22;4936159;29;20038;-90
2023/08/27 07:52:45;;;;;;;0.20;0.20;;;;;;;29.56;46.06;100908.78;4939799;28;20038;-89
2023/08/27 07:55:11;;;;;;;0.10;0.10;;;;;;;29.61;45.94;100906.38;4954933;28;20027;-89
2023/08/27 07:57:37;;;;;;;0.20;0.20;;;;;;;29.72;45.49;100889.84;4955063;28;20484;-90
2023/08/27 08:00:03;;;;;;;0.20;0.20;;;;;;;29.82;44.44;100914.34;4954699;28;20027;-90
2023/08/27 08:02:28;;;;;;;0.20;0.20;;;;;;;29.77;44.88;100898.06;4955083;28;20034;-90
2023/08/27 08:04:54;;;;;;;0.20;0.20;;;;;;;29.93;44.62;100903.13;4955083;28;20034;-90
2023/08/27 08:07:20;;;;;;;0.20;0.20;;;;;;;29.98;44.33;100886.53;4940242;28;20031;-88
2023/08/27 08:09:47;;;;;;;0.20;0.20;;;;;;;30.29;43.82;100904.81;4951756;29;20054;-90
2023/08/27 08:12:12;;;;;;;0.20;0.20;;;;;;;30.36;44.09;100899.50;4951802;29;20035;-89
2023/08/27 08:14:38;;;;;;;0.20;0.20;;;;;;;30.41;44.27;100895.22;4935592;29;20027;-90
2023/08/27 08:17:04;;;;;;;0.20;0.20;;;;;;;30.51;42.86;100901.03;4951526;29;20051;-89
2023/08/27 08:19:30;;;;;;;0.20;0.20;;;;;;;30.59;42.63;100899.22;4951623;29;20039;-89
2023/08/27 08:21:55;;;;;;;0.20;0.20;;;;;;;30.58;42.71;100889.53;4935660;29;20032;-88
2023/08/27 08:24:21;;;;;;;0.20;0.20;;;;;;;30.63;42.92;100905.78;4951588;29;20038;-89
2023/08/27 08:26:49;;;;;;;0.20;0.20;;;;;;;30.73;42.83;100893.72;4935606;29;20469;-89
2023/08/27 08:29:14;;;;;;;0.20;0.20;;;;;;;30.85;42.28;100910.00;4966803;28;20414;-90
2023/08/27 08:31:40;;;;;;;0.20;0.20;;;;;;;31.00;42.54;100899.16;4951263;29;20032;-89
2023/08/27 08:34:06;;;;;;;0.20;0.20;;;;;;;31.10;41.75;100897.72;4951781;29;20038;-90
2023/08/27 08:36:31;;;;;;;0.20;0.20;;;;;;;31.16;41.37;100881.91;4951452;29;20030;-90
2023/08/27 08:38:57;;;;;;;0.20;0.20;;;;;;;31.29;40.75;100889.97;4967584;28;20027;-90
2023/08/27 08:41:22;;;;;;;0.20;0.20;;;;;;;31.29;40.79;100887.31;4951516;29;20042;-88
2023/08/27 08:43:51;;;;;;;0.20;0.20;;;;;;;31.29;40.75;100877.44;4951198;29;20057;-90
2023/08/27 08:46:18;;;;;;;0.20;0.20;;;;;;;31.43;40.43;100872.91;4951696;29;20035;-89
2023/08/27 08:48:43;;;;;;;0.20;0.20;;;;;;;31.58;40.88;100875.38;4951440;29;20058;-89
2023/08/27 08:51:10;;;;;;;0.20;0.20;;;;;;;31.69;40.45;100883.59;4952454;28;20031;-90
2023/08/27 08:53:43;;;;;;;0.20;0.20;;;;;;;31.79;40.05;100866.34;4955475;29;20417;-90
2023/08/27 08:56:14;;;;;;;0.20;0.20;;;;;;;31.95;38.97;100876.56;4939399;29;20031;-89
2023/08/27 08:58:41;;;;;;;0.20;0.20;;;;;;;32.02;38.70;100869.38;4939006;29;20087;-91
2023/08/27 09:01:06;;;;;;;0.20;0.20;;;;;;;31.95;39.18;100855.16;4939287;29;20023;-89
2023/08/27 09:03:32;;;;;;;0.28;0.28;;;;;;;31.97;39.02;100861.16;4955186;28;20429;-89
2023/08/27 09:05:57;;;;;;;0.20;0.20;;;;;;;32.18;38.62;100866.25;4955167;29;20031;-89
2023/08/27 09:08:23;;;;;;;0.20;0.20;;;;;;;32.20;38.46;100848.09;4955135;29;20028;-89
2023/08/27 09:10:49;;;;;;;0.20;0.20;;;;;;;32.42;38.07;100845.97;4955425;29;20405;-89
2023/08/27 09:13:18;;;;;;;0.22;0.22;;;;;;;32.30;37.82;100815.56;4938870;29;20130;-89
2023/08/27 09:15:43;;;;;;;0.20;0.20;;;;;;;32.56;37.87;100846.75;4954835;29;20035;-90
2023/08/27 09:18:08;;;;;;;0.20;0.20;;;;;;;32.45;37.59;100818.81;4955413;29;20047;-89
2023/08/27 09:20:34;;;;;;;0.20;0.20;;;;;;;32.79;37.35;100852.38;4938843;29;20529;-89
2023/08/27 09:22:59;;;;;;;0.20;0.20;;;;;;;32.97;37.11;100854.38;4954805;29;20042;-90
2023/08/27 09:25:25;;;;;;;0.20;0.20;;;;;;;33.04;36.31;100844.44;4938767;29;20027;-90
2023/08/27 09:27:50;;;;;;;0.20;0.20;;;;;;;33.08;36.71;100842.13;4954637;29;20039;-90
2023/08/27 09:30:16;;;;;;;0.38;0.30;;;;;;;33.27;36.20;100846.50;4938745;29;20035;-90
2023/08/27 09:32:44;;;;;;;0.20;0.20;;;;;;;33.21;36.50;100820.56;4954588;29;20038;-89
2023/08/27 09:35:09;;;;;;;0.20;0.20;;;;;;;33.46;36.20;100835.88;4938597;29;20027;-90
2023/08/27 09:37:42;;;;;;;0.20;0.20;;;;;;;33.65;35.51;100834.84;4954348;29;20421;-90
2023/08/27 09:40:08;;;;;;;0.20;0.20;;;;;;;33.61;35.66;100828.28;4938830;29;20031;-90
2023/08/27 09:42:34;;;;;;;0.20;0.20;;;;;;;33.78;34.76;100829.34;4938487;29;20035;-90
2023/08/27 09:45:00;;;;;;;0.20;0.20;;;;;;;33.85;34.70;100818.53;4954456;29;20038;-90
2023/08/27 09:47:36;;;;;;;0.20;0.20;;;;;;;34.02;33.82;100824.16;4954347;29;20039;-89
2023/08/27 09:50:16;;;;;;;0.28;0.28;;;;;;;34.22;34.31;100824.75;4938377;29;20037;-90
2023/08/27 09:52:42;;;;;;;0.20;0.20;;;;;;;34.37;33.69;100817.09;4954303;29;20050;-90
2023/08/27 09:55:14;;;;;;;0.20;0.20;;;;;;;34.56;33.72;100814.41;4938351;29;20028;-90
2023/08/27 09:57:42;;;;;;;0.28;0.28;;;;;;;34.52;32.96;100775.63;4953921;29;20038;-92
2023/08/27 10:00:11;;;;;;;0.25;0.25;;;;;;;34.76;33.32;100801.50;4938133;29;20039;-90
2023/08/27 10:02:36;;;;;;;0.20;0.20;;;;;;;34.85;32.81;100808.19;4953181;28;20061;-90
2023/08/27 10:05:02;;;;;;;0.30;0.30;;;;;;;34.71;32.81;100795.97;4954365;29;20444;-91
2023/08/27 10:07:27;;;;;;;0.20;0.20;;;;;;;34.87;32.62;100795.31;4937973;29;20038;-91
2023/08/27 10:09:53;;;;;;;0.20;0.20;;;;;;;35.01;32.57;100791.41;4953999;29;20046;-90
2023/08/27 10:12:22;;;;;;;0.28;0.28;;;;;;;35.23;32.42;100793.53;4937492;29;20023;-91
2023/08/27 10:14:47;;;;;;;0.22;0.22;;;;;;;35.33;32.38;100783.00;4937978;29;20034;-90
2023/08/27 10:17:13;;;;;;;0.20;0.20;;;;;;;35.38;31.69;100775.06;4953856;29;20055;-89
2023/08/27 10:19:39;;;;;;;0.30;0.30;;;;;;;35.42;31.89;100765.50;4953821;29;20114;-91
2023/08/27 10:22:05;;;;;;;0.20;0.20;;;;;;;35.54;31.43;100787.00;4953849;29;20058;-91
2023/08/27 10:24:30;;;;;;;0.30;0.30;;;;;;;35.43;31.73;100766.31;4953601;28;20023;-90
2023/08/27 10:27:00;;;;;;;0.28;0.28;;;;;;;35.67;31.84;100772.47;4953423;29;20508;-91
2023/08/27 10:29:28;;;;;;;0.30;0.30;;;;;;;35.84;31.50;100770.69;4937374;29;20034;-91
2023/08/27 10:31:54;;;;;;;0.30;0.30;;;;;;;35.87;31.32;100762.16;4953647;29;20175;-90
2023/08/27 10:34:23;;;;;;;0.20;0.20;;;;;;;36.09;31.43;100765.84;4953534;29;20075;-90
2023/08/27 10:36:49;;;;;;;0.30;0.30;;;;;;;36.25;30.46;100753.47;4937973;29;20410;-91
2023/08/27 10:39:15;;;;;;;0.30;0.30;;;;;;;36.28;30.76;100742.19;4937407;29;20533;-91
2023/08/27 10:41:40;;;;;;;0.30;0.30;;;;;;;36.28;31.12;100734.09;4937514;29;20032;-90
2023/08/27 10:44:08;;;;;;;0.25;0.25;;;;;;;36.23;30.05;100733.22;4937558;29;20501;-90
2023/08/27 10:46:34;;;;;;;0.30;0.30;;;;;;;36.24;30.51;100734.84;4953824;29;20046;-90
2023/08/27 10:48:59;;;;;;;0.22;0.22;;;;;;;36.28;30.70;100736.81;4954563;28;20035;-91
2023/08/27 10:51:31;;;;;;;0.30;0.30;;;;;;;36.45;30.37;100720.72;4953452;29;20027;-90
2023/08/27 10:53:57;;;;;;;0.22;0.22;;;;;;;36.52;30.00;100715.97;4952789;29;20027;-91
2023/08/27 10:56:47;;;;;;;0.25;0.25;;;;;;;36.57;30.08;100707.97;4937259;29;20179;-91
2023/08/27 10:59:26;;;;;;;0.30;0.30;;;;;;;36.79;29.58;100715.34;4953117;29;20031;-90
2023/08/27 11:02:08;;;;;;;0.30;0.30;;;;;;;36.94;28.95;100707.50;4953148;29;20038;-91
2023/08/27 11:04:42;;;;;;;0.25;0.25;;;;;;;37.07;28.79;100712.56;4937764;29;20027;-91
2023/08/27 11:07:17;;;;;;;0.30;0.30;;;;;;;37.18;28.38;100710.81;4953046;29;20046;-92
2023/08/27 11:09:52;;;;;;;0.30;0.30;;;;;;;37.33;28.45;100711.84;4936714;29;20481;-90
2023/08/27 11:12:24;;;;;;;0.30;0.30;;;;;;;37.38;27.80;100704.91;4936941;29;20035;-90
2023/08/27 11:14:50;;;;;;;0.30;0.30;;;;;;;37.51;27.67;100702.66;4953955;28;20486;-90
2023/08/27 11:17:28;;;;;;;0.30;0.30;;;;;;;37.75;27.19;100697.78;4936583;29;20054;-90
2023/08/27 11:19:56;;;;;;;0.30;0.30;;;;;;;37.97;27.43;100699.69;4952803;29;20023;-91
2023/08/27 11:22:22;;;;;;;0.30;0.30;;;;;;;38.16;26.85;100679.34;4952988;29;20045;-90